Time;durP1;ratioP1;P1;durP2;ratioP2;P2;SDS_P1;SDS_P2;PMS_P1;PMS_P2;Temp;Humidity;BMP_temperature;BMP_pressure;BME280_temperature;BME280_humidity;BME280_pressure;Samples;Min_cycle;Max_cycle;Signal;HPM_P1;HPM_P2
2023/03/04 00:00:45;;;;;;;0.32;0.30;;;20.80;33.10;;;;;;6137116;29;20054;-49
2023/03/04 00:03:46;;;;;;;0.50;0.30;;;20.80;33.10;;;;;;6136855;29;20412;-50
2023/03/04 00:06:47;;;;;;;0.38;0.38;;;20.70;33.10;;;;;;6136803;29;20052;-47
2023/03/04 00:09:49;;;;;;;0.30;0.30;;;20.50;32.90;;;;;;6135949;29;20044;-45
2023/03/04 00:12:50;;;;;;;0.35;0.35;;;20.70;33.00;;;;;;6133990;29;20048;-51
2023/03/04 00:15:56;;;;;;;0.52;0.30;;;20.80;33.00;;;;;;6132962;29;20040;-49
2023/03/04 00:18:59;;;;;;;0.40;0.30;;;20.80;33.10;;;;;;6132814;29;20039;-47
2023/03/04 00:22:01;;;;;;;0.65;0.45;;;20.80;33.10;;;;;;6131383;29;20051;-51
2023/03/04 00:25:08;;;;;;;;;;;20.60;32.90;;;;;;6131879;29;20131;-47
2023/03/04 00:28:14;;;;;;;;;;;20.80;33.10;;;;;;6129754;29;19954;-47
2023/03/04 00:31:16;;;;;;;0.30;0.20;;;20.70;33.10;;;;;;6131083;29;19930;-49
2023/03/04 00:34:17;;;;;;;0.63;0.40;;;20.80;33.10;;;;;;6131942;29;20047;-45
2023/03/04 00:37:19;;;;;;;;;;;20.80;33.10;;;;;;6131653;29;20040;-49
2023/03/04 00:40:20;;;;;;;0.50;0.30;;;20.70;33.10;;;;;;6130655;29;19922;-47
2023/03/04 00:43:22;;;;;;;0.63;0.57;;;20.90;33.10;;;;;;6130541;29;20079;-51
2023/03/04 00:46:24;;;;;;;0.75;0.52;;;20.80;33.10;;;;;;6130085;29;20151;-50
2023/03/04 00:49:29;;;;;;;0.30;0.30;;;20.70;33.10;;;;;;6129756;29;20095;-50
2023/03/04 00:52:32;;;;;;;0.47;0.47;;;20.60;33.10;;;;;;6129948;29;20144;-50
2023/03/04 00:55:36;;;;;;;0.40;0.40;;;20.90;33.30;;;;;;6127688;29;20055;-47
2023/03/04 00:58:39;;;;;;;;;;;20.80;33.30;;;;;;6131972;29;20043;-51
2023/03/04 01:01:41;;;;;;;0.60;0.22;;;20.60;33.20;;;;;;6128964;29;19934;-49
2023/03/04 01:04:42;;;;;;;0.50;0.50;;;20.70;33.20;;;;;;6129800;29;20405;-49
2023/03/04 01:07:44;;;;;;;0.40;0.30;;;20.80;33.30;;;;;;6130215;29;20047;-52
2023/03/04 01:10:47;;;;;;;;;;;20.70;33.20;;;;;;6130412;29;20052;-49
2023/03/04 01:13:49;;;;;;;0.70;0.63;;;20.80;33.40;;;;;;6131332;29;19930;-48
2023/03/04 01:16:51;;;;;;;0.60;0.40;;;20.70;33.20;;;;;;6131578;29;20055;-50
2023/03/04 01:19:53;;;;;;;0.70;0.50;;;20.80;33.30;;;;;;6129961;29;20130;-50
2023/03/04 01:22:54;;;;;;;;;;;20.80;33.30;;;;;;6131537;29;20039;-48
2023/03/04 01:25:56;;;;;;;0.50;0.40;;;20.70;33.30;;;;;;6144506;29;19922;-50
2023/03/04 01:28:59;;;;;;;0.52;0.40;;;20.50;33.10;;;;;;6128999;29;20039;-49
2023/03/04 01:32:05;;;;;;;0.70;0.50;;;20.50;33.10;;;;;;6130915;29;20409;-46
2023/03/04 01:35:07;;;;;;;0.80;0.50;;;20.80;33.50;;;;;;6128320;29;20064;-47
2023/03/04 01:38:12;;;;;;;0.50;0.40;;;20.70;33.20;;;;;;6129796;29;20039;-45
2023/03/04 01:41:17;;;;;;;0.60;0.60;;;20.90;33.30;;;;;;6129561;29;20055;-46
2023/03/04 01:44:19;;;;;;;0.50;0.47;;;20.80;33.30;;;;;;6131727;29;20099;-47
2023/03/04 01:47:25;;;;;;;0.70;0.40;;;20.80;33.30;;;;;;6132474;29;20043;-48
2023/03/04 01:50:30;;;;;;;0.40;0.40;;;20.50;33.00;;;;;;6131984;29;20135;-49
2023/03/04 01:53:33;;;;;;;0.40;0.40;;;20.70;33.10;;;;;;6131201;29;20072;-48
2023/03/04 01:56:36;;;;;;;0.80;0.50;;;20.60;33.10;;;;;;6127698;29;20055;-50
2023/03/04 01:59:38;;;;;;;0.50;0.40;;;20.70;33.10;;;;;;6128708;29;20507;-50
2023/03/04 02:02:41;;;;;;;0.60;0.40;;;20.70;33.10;;;;;;6129885;29;20048;-47
2023/03/04 02:05:44;;;;;;;0.70;0.50;;;20.50;33.00;;;;;;6134191;29;20126;-47
2023/03/04 02:08:46;;;;;;;0.63;0.50;;;20.90;33.10;;;;;;6135238;29;20492;-49
2023/03/04 02:11:49;;;;;;;0.50;0.40;;;20.70;33.00;;;;;;6136105;29;20484;-46
2023/03/04 02:14:52;;;;;;;0.50;0.50;;;20.90;33.10;;;;;;6136373;29;20052;-51
2023/03/04 02:17:55;;;;;;;0.55;0.50;;;20.40;32.90;;;;;;6136385;29;20075;-50
2023/03/04 02:21:08;;;;;;;0.70;0.60;;;20.50;32.90;;;;;;6136732;29;20040;-51
2023/03/04 02:24:14;;;;;;;0.43;0.40;;;20.60;32.90;;;;;;6135720;29;20051;-47
2023/03/04 02:27:19;;;;;;;0.50;0.50;;;20.80;33.10;;;;;;6134360;29;20043;-48
2023/03/04 02:30:24;;;;;;;0.77;0.50;;;20.40;32.90;;;;;;6134520;29;20047;-50
2023/03/04 02:33:26;;;;;;;0.70;0.50;;;20.80;33.10;;;;;;6137159;29;20071;-46
2023/03/04 02:36:28;;;;;;;0.43;0.43;;;20.40;32.90;;;;;;6137071;29;20043;-49
2023/03/04 02:39:32;;;;;;;0.50;0.50;;;20.60;33.00;;;;;;6141970;29;20067;-50
2023/03/04 02:42:36;;;;;;;0.57;0.32;;;20.60;33.00;;;;;;6141833;29;20142;-49
2023/03/04 02:45:43;;;;;;;0.57;0.55;;;20.50;32.90;;;;;;6140969;29;20047;-49
2023/03/04 02:48:45;;;;;;;0.55;0.50;;;20.70;32.90;;;;;;6142060;29;20107;-49
2023/03/04 02:51:50;;;;;;;0.77;0.70;;;20.50;32.90;;;;;;6141423;29;20051;-46
2023/03/04 02:54:51;;;;;;;0.50;0.50;;;20.60;32.90;;;;;;6140197;29;20483;-49
2023/03/04 02:57:54;;;;;;;1.02;0.68;;;20.70;32.90;;;;;;6142124;29;20095;-49
2023/03/04 03:00:57;;;;;;;0.90;0.60;;;20.70;32.90;;;;;;6141569;29;20047;-49
2023/03/04 03:04:00;;;;;;;0.60;0.60;;;20.80;32.90;;;;;;6139210;29;20090;-47
2023/03/04 03:07:02;;;;;;;;;;;20.60;32.80;;;;;;6138038;29;20054;-44
2023/03/04 03:10:05;;;;;;;0.70;0.70;;;20.60;32.80;;;;;;6135656;29;19923;-50
2023/03/04 03:13:07;;;;;;;0.82;0.63;;;20.70;32.80;;;;;;6138324;29;20043;-45
2023/03/04 03:16:09;;;;;;;0.50;0.40;;;20.60;32.70;;;;;;6137768;29;20040;-50
2023/03/04 03:19:10;;;;;;;0.60;0.60;;;20.60;32.70;;;;;;6138027;29;20044;-48
2023/03/04 03:22:13;;;;;;;0.70;0.70;;;20.70;32.70;;;;;;6138378;29;20037;-48
2023/03/04 03:25:15;;;;;;;0.90;0.63;;;20.70;32.70;;;;;;6136713;29;20059;-49
2023/03/04 03:28:17;;;;;;;0.70;0.70;;;20.50;32.50;;;;;;6120805;29;20046;-48
2023/03/04 03:31:19;;;;;;;0.60;0.60;;;20.60;32.50;;;;;;6138486;29;20044;-45
2023/03/04 03:34:24;;;;;;;0.45;0.40;;;20.70;32.60;;;;;;6135632;29;20071;-47
2023/03/04 03:37:26;;;;;;;0.80;0.70;;;20.50;32.40;;;;;;6135703;29;20503;-49
2023/03/04 03:40:27;;;;;;;;;;;20.70;32.60;;;;;;6137406;29;20427;-50
2023/03/04 03:43:29;;;;;;;0.50;0.50;;;20.30;32.50;;;;;;6137486;29;19947;-48
2023/03/04 03:46:30;;;;;;;0.70;0.65;;;20.80;32.70;;;;;;6137115;29;20054;-46
2023/03/04 03:49:32;;;;;;;;;;;20.60;32.50;;;;;;6137768;29;20039;-48
2023/03/04 03:52:33;;;;;;;0.75;0.60;;;20.50;32.50;;;;;;6137556;29;20363;-49
2023/03/04 03:55:35;;;;;;;0.60;0.55;;;20.40;32.40;;;;;;6137780;29;20404;-50
2023/03/04 03:58:37;;;;;;;0.82;0.52;;;20.50;32.40;;;;;;6139530;29;20047;-49
2023/03/04 04:01:38;;;;;;;0.73;0.60;;;20.80;32.50;;;;;;6139337;29;20043;-50
2023/03/04 04:04:40;;;;;;;;;;;20.70;32.40;;;;;;6139837;29;20065;-45
2023/03/04 04:07:42;;;;;;;0.68;0.57;;;20.60;32.50;;;;;;6138369;29;19922;-50
2023/03/04 04:10:43;;;;;;;0.90;0.73;;;20.50;32.30;;;;;;6136686;29;20051;-48
2023/03/04 04:13:45;;;;;;;0.52;0.50;;;20.60;32.40;;;;;;6135365;29;20048;-47
2023/03/04 04:16:48;;;;;;;0.70;0.68;;;20.60;32.30;;;;;;6137729;29;20047;-49
2023/03/04 04:19:50;;;;;;;0.90;0.70;;;20.60;32.90;;;;;;6136107;29;20048;-45
2023/03/04 04:22:54;;;;;;;0.65;0.57;;;20.50;32.20;;;;;;6137275;29;20509;-47
2023/03/04 04:25:57;;;;;;;0.65;0.60;;;20.40;32.10;;;;;;6136946;29;20083;-46
2023/03/04 04:29:01;;;;;;;0.77;0.77;;;20.30;32.00;;;;;;6135990;29;20040;-50
2023/03/04 04:32:03;;;;;;;1.30;0.80;;;20.60;31.90;;;;;;6138233;29;20508;-51
2023/03/04 04:35:06;;;;;;;0.95;0.85;;;20.50;32.00;;;;;;6136541;29;20106;-50
2023/03/04 04:38:09;;;;;;;0.75;0.60;;;20.70;32.00;;;;;;6137538;29;20052;-49
2023/03/04 04:41:19;;;;;;;0.70;0.68;;;20.70;31.90;;;;;;6136679;29;20052;-48
2023/03/04 04:44:21;;;;;;;0.60;0.60;;;20.70;31.90;;;;;;6136061;29;20507;-48
2023/03/04 04:47:23;;;;;;;0.63;0.60;;;20.40;31.70;;;;;;6136799;29;20044;-48
2023/03/04 04:50:25;;;;;;;1.00;0.88;;;20.50;31.70;;;;;;6136412;29;20075;-48
2023/03/04 04:53:26;;;;;;;0.77;0.60;;;20.80;31.80;;;;;;6136588;29;20055;-44
2023/03/04 04:56:28;;;;;;;;;;;20.50;31.70;;;;;;6135678;29;20039;-49
2023/03/04 04:59:33;;;;;;;0.82;0.55;;;20.50;31.70;;;;;;6136055;29;20380;-49
2023/03/04 05:02:35;;;;;;;1.10;0.80;;;20.50;31.50;;;;;;6136096;29;20051;-49
2023/03/04 05:05:36;;;;;;;0.75;0.75;;;20.40;31.60;;;;;;6135873;29;20056;-46
2023/03/04 05:08:40;;;;;;;1.02;0.80;;;20.60;31.60;;;;;;6135850;29;20067;-49
2023/03/04 05:11:41;;;;;;;0.70;0.60;;;20.70;31.70;;;;;;6135905;29;20039;-49
2023/03/04 05:14:43;;;;;;;0.95;0.77;;;20.50;31.50;;;;;;6135957;29;20044;-49
2023/03/04 05:17:44;;;;;;;1.30;0.95;;;20.60;31.50;;;;;;6135611;29;20044;-47
2023/03/04 05:20:49;;;;;;;;;;;20.50;31.40;;;;;;6135526;29;20048;-51
2023/03/04 05:23:51;;;;;;;1.15;0.90;;;20.60;31.50;;;;;;6135585;29;19928;-48
2023/03/04 05:26:52;;;;;;;1.00;0.90;;;20.70;31.60;;;;;;6135775;29;20047;-48
2023/03/04 05:29:58;;;;;;;1.23;0.85;;;20.60;31.40;;;;;;6135611;29;20496;-49
2023/03/04 05:33:00;;;;;;;1.33;1.13;;;20.60;31.30;;;;;;6135376;29;20453;-50
2023/03/04 05:36:01;;;;;;;1.02;0.88;;;20.60;31.30;;;;;;6135924;29;20044;-49
2023/03/04 05:39:03;;;;;;;0.82;0.70;;;20.70;31.30;;;;;;6135711;29;20047;-46
2023/03/04 05:42:04;;;;;;;;;;;20.60;31.20;;;;;;6135343;29;20558;-46
2023/03/04 05:45:07;;;;;;;0.68;0.63;;;20.40;31.20;;;;;;6135860;29;19923;-47
2023/03/04 05:48:09;;;;;;;0.93;0.70;;;20.60;31.20;;;;;;6135806;29;20091;-50
2023/03/04 05:51:10;;;;;;;0.98;0.80;;;20.60;31.10;;;;;;6134817;29;20063;-48
2023/03/04 05:54:12;;;;;;;1.17;0.88;;;20.70;31.80;;;;;;6135207;29;20118;-45
2023/03/04 05:57:13;;;;;;;1.50;1.15;;;20.70;31.10;;;;;;6135048;29;20048;-50
2023/03/04 06:00:16;;;;;;;0.80;0.63;;;20.70;31.10;;;;;;6135501;29;20050;-49
2023/03/04 06:03:21;;;;;;;1.00;0.77;;;20.60;31.00;;;;;;6135663;29;20050;-48
2023/03/04 06:06:22;;;;;;;1.02;0.93;;;20.50;30.90;;;;;;6134460;29;20048;-49
2023/03/04 06:09:24;;;;;;;0.93;0.85;;;20.60;30.90;;;;;;6135967;29;20520;-49
2023/03/04 06:12:27;;;;;;;1.05;0.88;;;20.50;30.90;;;;;;6135661;29;20052;-44
2023/03/04 06:15:29;;;;;;;1.00;0.90;;;20.40;30.80;;;;;;6136147;29;20039;-49
2023/03/04 06:18:33;;;;;;;1.00;0.90;;;20.60;30.80;;;;;;6134870;29;20080;-48
2023/03/04 06:21:34;;;;;;;1.52;1.00;;;20.50;31.30;;;;;;6135184;29;20393;-49
2023/03/04 06:24:36;;;;;;;1.27;0.90;;;20.70;30.80;;;;;;6136344;29;20039;-49
2023/03/04 06:27:38;;;;;;;0.90;0.80;;;20.70;30.70;;;;;;6135372;29;20044;-49
2023/03/04 06:30:40;;;;;;;;;;;20.80;30.70;;;;;;6135313;29;20048;-48
2023/03/04 06:33:41;;;;;;;;;;;20.40;30.60;;;;;;6134665;29;19962;-49
2023/03/04 06:36:43;;;;;;;0.98;0.90;;;20.70;30.90;;;;;;6135210;29;19958;-47
2023/03/04 06:39:44;;;;;;;1.10;0.80;;;20.50;30.70;;;;;;6135523;29;20051;-47
2023/03/04 06:42:46;;;;;;;1.15;1.00;;;20.80;30.70;;;;;;6134491;29;20099;-47
2023/03/04 06:45:48;;;;;;;0.90;0.90;;;20.70;30.60;;;;;;6135225;29;20043;-46
2023/03/04 06:48:50;;;;;;;1.00;0.90;;;20.60;30.50;;;;;;6135336;29;20055;-49
2023/03/04 06:51:52;;;;;;;1.20;1.00;;;20.40;30.30;;;;;;6135382;29;20048;-46
2023/03/04 06:54:53;;;;;;;1.10;0.95;;;20.60;30.40;;;;;;6138584;29;20047;-46
2023/03/04 06:57:54;;;;;;;;;;;20.80;30.40;;;;;;6139586;29;20043;-50
2023/03/04 07:00:56;;;;;;;0.70;0.70;;;20.40;30.40;;;;;;6138452;29;19923;-46
2023/03/04 07:03:58;;;;;;;1.25;1.00;;;20.60;30.30;;;;;;6138690;29;20048;-49
2023/03/04 07:06:59;;;;;;;;;;;20.60;30.30;;;;;;6140363;29;20043;-47
2023/03/04 07:10:01;;;;;;;1.15;0.90;;;20.60;30.40;;;;;;6139707;29;19966;-49
2023/03/04 07:13:02;;;;;;;1.20;1.00;;;20.60;30.30;;;;;;6140186;29;20075;-48
2023/03/04 07:16:05;;;;;;;1.10;1.00;;;20.50;30.20;;;;;;6138577;29;20055;-50
2023/03/04 07:19:07;;;;;;;1.05;0.95;;;20.70;30.20;;;;;;6139461;29;20050;-47
2023/03/04 07:22:11;;;;;;;1.30;1.20;;;20.60;30.20;;;;;;6139918;29;20126;-50
2023/03/04 07:25:13;;;;;;;0.70;0.70;;;20.60;30.10;;;;;;6139994;29;20051;-50
2023/03/04 07:28:14;;;;;;;;;;;20.60;30.10;;;;;;6139071;29;20039;-50
2023/03/04 07:31:21;;;;;;;1.58;1.15;;;20.50;30.20;;;;;;6141975;29;19922;-46
2023/03/04 07:34:23;;;;;;;1.55;1.00;;;20.50;30.10;;;;;;6140115;29;20040;-50
2023/03/04 07:37:24;;;;;;;1.10;0.98;;;20.70;30.20;;;;;;6141962;29;20056;-48
2023/03/04 07:40:26;;;;;;;;;;;20.60;30.10;;;;;;6142442;29;20044;-48
2023/03/04 07:43:27;;;;;;;1.10;1.00;;;20.60;30.30;;;;;;6141893;29;19947;-46
2023/03/04 07:46:29;;;;;;;1.02;0.90;;;20.70;30.30;;;;;;6141548;29;20051;-47
2023/03/04 07:49:31;;;;;;;1.20;1.05;;;20.30;30.10;;;;;;6141075;29;20047;-49
2023/03/04 07:52:32;;;;;;;;;;;20.60;30.20;;;;;;6142033;29;20039;-50
2023/03/04 07:55:34;;;;;;;1.20;1.10;;;20.60;30.30;;;;;;6140785;29;20260;-47
2023/03/04 07:58:35;;;;;;;;;;;20.60;30.30;;;;;;6141735;29;20397;-48
2023/03/04 08:01:37;;;;;;;1.00;0.90;;;20.70;30.50;;;;;;6140504;29;19927;-47
2023/03/04 08:04:39;;;;;;;1.10;1.00;;;20.60;30.30;;;;;;6141091;29;20481;-48
2023/03/04 08:07:40;;;;;;;1.30;1.20;;;20.40;30.20;;;;;;6140651;29;20054;-49
2023/03/04 08:10:43;;;;;;;1.20;0.93;;;20.50;30.30;;;;;;6141358;29;20404;-49
2023/03/04 08:13:45;;;;;;;1.08;0.98;;;20.70;30.40;;;;;;6138969;29;20054;-49
2023/03/04 08:16:47;;;;;;;0.88;0.80;;;20.60;30.40;;;;;;6140193;29;20496;-45
2023/03/04 08:19:49;;;;;;;0.93;0.82;;;20.70;30.50;;;;;;6141463;29;20044;-47
2023/03/04 08:22:51;;;;;;;1.05;0.95;;;20.60;30.40;;;;;;6141382;29;20048;-49
2023/03/04 08:25:52;;;;;;;0.80;0.73;;;20.70;30.50;;;;;;6140723;29;20048;-48
2023/03/04 08:28:54;;;;;;;;;;;20.60;30.50;;;;;;6141270;29;20484;-50
2023/03/04 08:32:02;;;;;;;1.00;0.90;;;20.30;30.30;;;;;;6139742;29;19922;-48
2023/03/04 08:35:04;;;;;;;0.80;0.80;;;20.70;30.40;;;;;;6140060;29;20059;-47
2023/03/04 08:38:06;;;;;;;0.88;0.80;;;20.80;30.60;;;;;;6140600;29;20036;-47
2023/03/04 08:41:07;;;;;;;1.00;0.95;;;20.60;30.60;;;;;;6140132;29;20040;-48
2023/03/04 08:44:12;;;;;;;;;;;20.80;30.70;;;;;;6140220;29;20067;-46
2023/03/04 08:47:14;;;;;;;0.98;0.88;;;20.70;30.70;;;;;;6140390;29;19923;-50
2023/03/04 08:50:16;;;;;;;0.70;0.65;;;20.50;30.60;;;;;;6140681;29;20047;-50
2023/03/04 08:53:19;;;;;;;1.42;0.95;;;20.50;30.60;;;;;;6140751;29;20048;-48
2023/03/04 08:56:20;;;;;;;0.80;0.70;;;20.60;30.70;;;;;;6123691;29;20067;-49
2023/03/04 08:59:22;;;;;;;;;;;20.60;30.80;;;;;;6140423;29;20039;-46
2023/03/04 09:02:24;;;;;;;0.57;0.57;;;20.80;30.90;;;;;;6139889;29;20272;-49
2023/03/04 09:05:26;;;;;;;0.90;0.90;;;20.50;30.70;;;;;;6140092;29;20500;-50
2023/03/04 09:08:27;;;;;;;0.55;0.55;;;20.80;30.90;;;;;;6142224;29;20055;-49
2023/03/04 09:11:29;;;;;;;0.80;0.60;;;20.70;30.80;;;;;;6140976;29;20043;-47
2023/03/04 09:14:34;;;;;;;0.80;0.60;;;20.70;31.50;;;;;;6138071;29;20043;-48
2023/03/04 09:17:36;;;;;;;0.68;0.63;;;20.80;30.90;;;;;;6138705;29;20051;-47
2023/03/04 09:20:38;;;;;;;0.50;0.50;;;20.70;30.80;;;;;;6136198;29;20051;-48
2023/03/04 09:23:40;;;;;;;0.50;0.50;;;20.80;30.90;;;;;;6136817;29;20055;-44
2023/03/04 09:26:42;;;;;;;1.13;0.57;;;20.90;30.90;;;;;;6135541;29;20426;-48
2023/03/04 09:29:44;;;;;;;0.50;0.45;;;20.80;30.80;;;;;;6135732;29;20071;-47
2023/03/04 09:32:46;;;;;;;0.63;0.60;;;20.90;30.80;;;;;;6136638;29;20040;-47
2023/03/04 09:35:48;;;;;;;0.57;0.50;;;20.90;30.80;;;;;;6137024;29;20106;-46
2023/03/04 09:38:51;;;;;;;0.73;0.50;;;20.80;30.70;;;;;;6136418;29;20063;-45
2023/03/04 09:41:56;;;;;;;0.40;0.40;;;20.70;30.60;;;;;;6135579;29;20047;-44
2023/03/04 09:44:58;;;;;;;0.60;0.50;;;20.70;30.60;;;;;;6136991;29;20059;-46
2023/03/04 09:48:00;;;;;;;0.65;0.47;;;20.90;30.70;;;;;;6136876;29;20039;-47
2023/03/04 09:51:18;;;;;;;0.50;0.40;;;20.70;30.60;;;;;;6136646;29;20080;-49
2023/03/04 09:54:31;;;;;;;0.43;0.43;;;20.90;30.60;;;;;;6134898;29;20489;-46
2023/03/04 09:57:45;;;;;;;0.63;0.47;;;21.00;30.70;;;;;;6135528;29;20055;-48
2023/03/04 10:00:54;;;;;;;0.80;0.50;;;21.00;30.70;;;;;;6135460;29;20513;-50
2023/03/04 10:04:01;;;;;;;0.80;0.60;;;21.00;30.70;;;;;;6136965;29;20565;-49
2023/03/04 10:07:03;;;;;;;0.82;0.45;;;20.90;30.60;;;;;;6137630;29;20044;-48
2023/03/04 10:10:12;;;;;;;0.40;0.40;;;20.70;30.50;;;;;;6135321;29;20040;-47
2023/03/04 10:13:18;;;;;;;0.40;0.40;;;21.00;30.60;;;;;;6135601;29;20055;-50
2023/03/04 10:16:24;;;;;;;0.63;0.50;;;20.70;30.50;;;;;;6135435;29;20376;-49
2023/03/04 10:19:37;;;;;;;0.50;0.50;;;20.90;30.60;;;;;;6135887;29;20051;-48
2023/03/04 10:22:43;;;;;;;0.50;0.50;;;21.00;30.60;;;;;;6136125;29;20044;-46
2023/03/04 10:25:45;;;;;;;0.40;0.40;;;20.90;30.60;;;;;;6136110;29;20051;-47
2023/03/04 10:28:47;;;;;;;0.68;0.57;;;21.00;30.60;;;;;;6140133;29;20067;-48
2023/03/04 10:31:49;;;;;;;0.77;0.60;;;21.00;30.60;;;;;;6140343;29;20036;-47
2023/03/04 10:34:51;;;;;;;0.70;0.50;;;21.00;30.60;;;;;;6140569;29;20048;-46
2023/03/04 10:37:52;;;;;;;0.77;0.60;;;20.80;30.50;;;;;;6142722;29;20068;-46
2023/03/04 10:40:54;;;;;;;0.63;0.50;;;21.10;30.60;;;;;;6143244;29;20043;-49
2023/03/04 10:44:02;;;;;;;0.40;0.40;;;20.90;30.60;;;;;;6141637;29;20051;-47
2023/03/04 10:47:09;;;;;;;0.93;0.77;;;20.90;30.60;;;;;;6140600;29;20552;-45
2023/03/04 10:50:23;;;;;;;0.50;0.50;;;20.70;30.40;;;;;;6138674;29;20464;-49
2023/03/04 10:53:32;;;;;;;1.10;0.70;;;21.00;30.60;;;;;;6138962;29;20141;-47
2023/03/04 10:56:37;;;;;;;0.50;0.50;;;20.70;30.40;;;;;;6139900;29;20046;-46
2023/03/04 10:59:46;;;;;;;0.43;0.43;;;20.90;30.40;;;;;;6139004;29;20532;-46
2023/03/04 11:02:49;;;;;;;1.00;0.75;;;20.70;30.30;;;;;;6138356;29;20441;-46
2023/03/04 11:06:02;;;;;;;0.50;0.30;;;20.90;30.40;;;;;;6139504;29;20050;-46
2023/03/04 11:09:04;;;;;;;0.60;0.40;;;21.00;30.50;;;;;;6139262;29;20050;-47
2023/03/04 11:12:11;;;;;;;0.43;0.40;;;21.00;30.50;;;;;;6139913;29;20582;-49
2023/03/04 11:15:19;;;;;;;0.90;0.50;;;20.90;30.40;;;;;;6138673;29;20092;-50
2023/03/04 11:18:28;;;;;;;0.43;0.43;;;21.00;30.40;;;;;;6139215;29;20089;-49
2023/03/04 11:21:36;;;;;;;0.50;0.40;;;20.90;30.40;;;;;;6139842;29;20054;-46
2023/03/04 11:24:48;;;;;;;0.30;0.30;;;21.00;30.40;;;;;;6138966;29;20044;-51
2023/03/04 11:27:54;;;;;;;0.38;0.38;;;21.00;30.30;;;;;;6139486;29;20076;-48
2023/03/04 11:31:02;;;;;;;0.43;0.43;;;20.90;30.30;;;;;;6139424;29;20044;-49
2023/03/04 11:34:11;;;;;;;0.40;0.40;;;20.90;30.30;;;;;;6139442;29;20055;-46
2023/03/04 11:37:21;;;;;;;0.70;0.40;;;21.10;30.40;;;;;;6138449;29;20048;-48
2023/03/04 11:40:31;;;;;;;0.68;0.38;;;20.90;30.20;;;;;;6139608;29;20143;-47
2023/03/04 11:43:35;;;;;;;0.40;0.30;;;20.80;30.10;;;;;;6139272;28;20039;-50
2023/03/04 11:46:52;;;;;;;0.70;0.40;;;21.00;30.20;;;;;;6138131;29;20047;-46
2023/03/04 11:50:02;;;;;;;0.50;0.40;;;21.00;30.20;;;;;;6137109;29;20043;-49
2023/03/04 11:53:27;;;;;;;0.60;0.60;;;20.90;30.10;;;;;;6137718;29;20087;-46
2023/03/04 11:56:35;;;;;;;0.65;0.40;;;21.10;30.20;;;;;;6135908;29;20080;-47
2023/03/04 11:59:46;;;;;;;0.40;0.40;;;20.90;30.10;;;;;;6136143;29;20035;-47
2023/03/04 12:03:02;;;;;;;0.40;0.30;;;21.10;30.20;;;;;;6137509;29;20043;-49
2023/03/04 12:06:11;;;;;;;0.35;0.30;;;20.90;30.10;;;;;;6136336;29;20059;-49
2023/03/04 12:09:25;;;;;;;0.30;0.20;;;20.90;30.10;;;;;;6137748;29;20048;-50
2023/03/04 12:12:41;;;;;;;0.47;0.40;;;21.10;30.10;;;;;;6136964;29;20453;-46
2023/03/04 12:15:49;;;;;;;0.40;0.40;;;21.20;30.20;;;;;;6137334;29;20055;-49
2023/03/04 12:19:05;;;;;;;0.63;0.50;;;21.10;30.10;;;;;;6137355;29;20099;-49
2023/03/04 12:22:22;;;;;;;0.63;0.50;;;21.00;30.00;;;;;;6136149;29;20100;-46
2023/03/04 12:25:36;;;;;;;0.50;0.32;;;21.20;30.10;;;;;;6136590;29;20043;-48
2023/03/04 12:28:51;;;;;;;0.30;0.30;;;20.90;30.00;;;;;;6135885;29;20047;-48
2023/03/04 12:31:59;;;;;;;0.40;0.40;;;21.20;30.00;;;;;;6137051;29;20048;-47
2023/03/04 12:35:23;;;;;;;0.60;0.47;;;21.20;30.00;;;;;;6136722;29;20047;-47
2023/03/04 12:38:34;;;;;;;0.77;0.57;;;20.90;30.00;;;;;;6136688;29;20044;-48
2023/03/04 12:41:47;;;;;;;0.63;0.40;;;21.10;30.00;;;;;;6136959;29;20055;-45
2023/03/04 12:45:01;;;;;;;0.45;0.40;;;20.80;29.90;;;;;;6135990;29;20098;-46
2023/03/04 12:48:10;;;;;;;0.40;0.40;;;21.20;30.00;;;;;;6136334;29;20076;-47
2023/03/04 12:51:22;;;;;;;0.45;0.35;;;21.20;30.00;;;;;;6103086;29;20432;-46
2023/03/04 12:54:30;;;;;;;0.50;0.30;;;21.20;30.00;;;;;;6137079;29;20044;-47
2023/03/04 12:57:33;;;;;;;0.57;0.30;;;21.30;30.00;;;;;;6135292;29;20468;-49
2023/03/04 13:00:49;;;;;;;0.30;0.30;;;21.10;29.90;;;;;;6136954;29;20055;-48
2023/03/04 13:03:57;;;;;;;0.55;0.45;;;20.90;29.80;;;;;;6136390;29;20112;-48
2023/03/04 13:07:10;;;;;;;1.00;0.40;;;21.10;30.40;;;;;;6136690;29;20051;-49
2023/03/04 13:10:16;;;;;;;0.40;0.30;;;21.00;29.80;;;;;;6137018;29;20492;-45
2023/03/04 13:13:34;;;;;;;0.63;0.30;;;21.10;29.90;;;;;;6136647;29;20040;-48
2023/03/04 13:16:38;;;;;;;0.55;0.55;;;21.00;29.80;;;;;;6136295;29;20472;-48
2023/03/04 13:19:52;;;;;;;0.60;0.50;;;21.10;29.90;;;;;;6134797;29;20036;-47
2023/03/04 13:22:56;;;;;;;0.50;0.40;;;21.10;29.80;;;;;;6135004;29;20047;-47
2023/03/04 13:26:22;;;;;;;0.55;0.30;;;21.10;29.80;;;;;;6135895;29;20055;-45
2023/03/04 13:29:35;;;;;;;0.50;0.30;;;21.10;29.80;;;;;;6136467;29;20135;-50
2023/03/04 13:32:37;;;;;;;0.63;0.47;;;21.20;29.80;;;;;;6135119;29;20051;-48
2023/03/04 13:35:58;;;;;;;0.68;0.40;;;20.90;29.70;;;;;;6135838;29;20044;-50
2023/03/04 13:39:04;;;;;;;0.50;0.50;;;21.20;29.80;;;;;;6135641;29;20360;-46
2023/03/04 13:42:32;;;;;;;0.60;0.40;;;21.10;29.70;;;;;;6118538;29;20044;-50
2023/03/04 13:45:37;;;;;;;0.52;0.40;;;21.20;29.70;;;;;;6134594;29;20129;-50
2023/03/04 13:48:39;;;;;;;0.32;0.30;;;21.20;29.70;;;;;;6134307;29;20047;-47
2023/03/04 13:51:42;;;;;;;;;;;21.20;30.10;;;;;;6136908;29;20519;-49
2023/03/04 13:54:44;;;;;;;0.32;0.28;;;20.90;29.60;;;;;;6134783;29;19929;-48
2023/03/04 13:57:48;;;;;;;;;;;20.90;29.60;;;;;;6135996;29;20068;-47
2023/03/04 14:00:52;;;;;;;0.20;0.20;;;21.20;29.70;;;;;;6136121;29;19922;-46
2023/03/04 14:03:55;;;;;;;0.28;0.22;;;20.90;29.60;;;;;;6123193;29;20051;-50
2023/03/04 14:07:04;;;;;;;0.32;0.30;;;21.10;29.70;;;;;;6122956;29;20059;-50
2023/03/04 14:10:19;;;;;;;0.55;0.30;;;21.20;29.70;;;;;;6138503;29;20100;-48
2023/03/04 14:13:27;;;;;;;0.50;0.40;;;21.20;29.70;;;;;;6140321;29;20508;-47
2023/03/04 14:16:34;;;;;;;0.40;0.40;;;21.20;29.70;;;;;;6140108;29;20485;-44
2023/03/04 14:19:43;;;;;;;0.43;0.40;;;21.20;29.80;;;;;;6139477;29;20096;-45
2023/03/04 14:22:44;;;;;;;0.45;0.40;;;21.20;29.90;;;;;;6138656;29;20062;-49
2023/03/04 14:25:45;;;;;;;;;;;21.20;29.90;;;;;;6140400;29;20059;-47
2023/03/04 14:28:50;;;;;;;0.77;0.47;;;21.20;30.00;;;;;;6139551;29;19969;-50
2023/03/04 14:31:53;;;;;;;0.47;0.40;;;21.20;30.00;;;;;;6138597;29;20047;-48
2023/03/04 14:34:58;;;;;;;0.60;0.47;;;21.20;30.00;;;;;;6138880;29;20043;-47
2023/03/04 14:38:02;;;;;;;0.52;0.43;;;21.20;30.10;;;;;;6138637;29;20058;-47
2023/03/04 14:41:08;;;;;;;0.50;0.50;;;21.30;30.20;;;;;;6138685;29;20068;-49
2023/03/04 14:44:17;;;;;;;0.55;0.50;;;21.30;30.30;;;;;;6139799;29;20043;-48
2023/03/04 14:47:23;;;;;;;0.50;0.50;;;21.20;31.00;;;;;;6139583;29;20044;-44
2023/03/04 14:50:24;;;;;;;0.68;0.52;;;21.00;30.30;;;;;;6139126;29;20044;-48
2023/03/04 14:53:28;;;;;;;0.52;0.35;;;21.20;30.40;;;;;;6139110;29;20047;-49
2023/03/04 14:56:43;;;;;;;0.65;0.50;;;21.20;30.50;;;;;;6139021;29;20047;-48
2023/03/04 14:59:45;;;;;;;0.50;0.38;;;21.30;30.50;;;;;;6139231;29;20042;-50
2023/03/04 15:02:49;;;;;;;;;;;21.30;30.50;;;;;;6139657;29;20040;-47
2023/03/04 15:05:51;;;;;;;0.80;0.50;;;21.00;30.40;;;;;;6139426;29;19922;-50
2023/03/04 15:08:56;;;;;;;0.65;0.50;;;21.30;30.50;;;;;;6138104;29;20047;-48
2023/03/04 15:12:02;;;;;;;0.43;0.43;;;21.00;30.40;;;;;;6121525;29;20039;-47
2023/03/04 15:15:24;;;;;;;0.75;0.68;;;21.20;30.50;;;;;;6138198;29;20377;-51
2023/03/04 15:18:29;;;;;;;0.40;0.40;;;21.30;30.60;;;;;;6125380;29;20040;-47
2023/03/04 15:21:36;;;;;;;0.50;0.50;;;21.00;30.40;;;;;;6138999;29;20052;-48
2023/03/04 15:24:37;;;;;;;0.80;0.40;;;21.10;30.40;;;;;;6138342;29;20054;-47
2023/03/04 15:27:38;;;;;;;;;;;21.30;30.60;;;;;;6139733;29;20047;-49
2023/03/04 15:30:40;;;;;;;0.52;0.45;;;21.20;30.60;;;;;;6139822;29;19922;-50
2023/03/04 15:33:42;;;;;;;1.00;0.40;;;21.00;30.50;;;;;;6138495;29;20227;-48
2023/03/04 15:36:46;;;;;;;0.45;0.45;;;21.30;30.60;;;;;;6138942;29;20522;-49
2023/03/04 15:39:48;;;;;;;0.57;0.57;;;21.20;30.60;;;;;;6138505;29;20039;-47
2023/03/04 15:42:49;;;;;;;0.52;0.40;;;21.30;30.70;;;;;;6139614;29;20067;-46
2023/03/04 15:45:52;;;;;;;1.02;0.50;;;21.20;30.70;;;;;;6139030;29;20086;-45
2023/03/04 15:48:56;;;;;;;0.35;0.35;;;21.30;30.80;;;;;;6137895;29;20133;-50
2023/03/04 15:51:58;;;;;;;0.50;0.50;;;21.00;30.60;;;;;;6139039;29;20051;-50
2023/03/04 15:54:59;;;;;;;;;;;21.20;30.80;;;;;;6139268;29;20043;-48
2023/03/04 15:58:02;;;;;;;0.43;0.30;;;21.10;30.80;;;;;;6138340;28;19929;-49
2023/03/04 16:01:03;;;;;;;0.40;0.30;;;21.20;30.70;;;;;;6138597;29;20040;-46
2023/03/04 16:04:08;;;;;;;0.68;0.50;;;21.20;30.80;;;;;;6138446;29;20127;-46
2023/03/04 16:07:16;;;;;;;0.75;0.50;;;21.20;30.80;;;;;;6137956;29;20047;-47
2023/03/04 16:10:21;;;;;;;0.77;0.50;;;21.30;30.90;;;;;;6137465;29;20074;-48